sensor_id;sensor_type;location;lat;lon;timestamp;P1;durP1;ratioP1;P2;durP2;ratioP2
56999;SDS011;42891;50.006;21.964;2022-12-26T00:02:29;11.63;;;6.85;;
56999;SDS011;42891;50.006;21.964;2022-12-26T00:06:30;11.67;;;7.50;;
56999;SDS011;42891;50.006;21.964;2022-12-26T00:10:31;12.05;;;6.78;;
56999;SDS011;42891;50.006;21.964;2022-12-26T00:14:31;8.57;;;5.77;;
56999;SDS011;42891;50.006;21.964;2022-12-26T00:18:31;10.77;;;5.83;;
56999;SDS011;42891;50.006;21.964;2022-12-26T00:22:32;11.40;;;6.47;;
56999;SDS011;42891;50.006;21.964;2022-12-26T00:26:33;10.70;;;6.13;;
56999;SDS011;42891;50.006;21.964;2022-12-26T00:30:36;10.68;;;6.00;;
56999;SDS011;42891;50.006;21.964;2022-12-26T00:34:37;9.98;;;5.93;;
56999;SDS011;42891;50.006;21.964;2022-12-26T00:38:37;10.87;;;5.60;;
56999;SDS011;42891;50.006;21.964;2022-12-26T00:42:38;8.80;;;5.57;;
56999;SDS011;42891;50.006;21.964;2022-12-26T00:46:38;11.20;;;5.80;;
56999;SDS011;42891;50.006;21.964;2022-12-26T00:50:38;7.87;;;5.10;;
56999;SDS011;42891;50.006;21.964;2022-12-26T00:54:39;6.45;;;4.88;;
56999;SDS011;42891;50.006;21.964;2022-12-26T00:58:39;5.47;;;4.53;;
56999;SDS011;42891;50.006;21.964;2022-12-26T01:02:41;6.85;;;4.70;;
56999;SDS011;42891;50.006;21.964;2022-12-26T01:06:41;7.10;;;4.88;;
56999;SDS011;42891;50.006;21.964;2022-12-26T01:10:42;5.30;;;4.33;;
56999;SDS011;42891;50.006;21.964;2022-12-26T01:14:43;8.20;;;5.07;;
56999;SDS011;42891;50.006;21.964;2022-12-26T01:18:44;6.63;;;4.78;;
56999;SDS011;42891;50.006;21.964;2022-12-26T01:22:44;6.93;;;5.10;;
56999;SDS011;42891;50.006;21.964;2022-12-26T01:26:44;9.17;;;5.07;;
56999;SDS011;42891;50.006;21.964;2022-12-26T01:30:45;7.22;;;4.88;;
56999;SDS011;42891;50.006;21.964;2022-12-26T01:34:45;11.85;;;4.97;;
56999;SDS011;42891;50.006;21.964;2022-12-26T01:38:45;7.30;;;5.28;;
56999;SDS011;42891;50.006;21.964;2022-12-26T01:42:46;8.93;;;5.57;;
56999;SDS011;42891;50.006;21.964;2022-12-26T01:46:46;7.80;;;5.43;;
56999;SDS011;42891;50.006;21.964;2022-12-26T01:50:56;9.20;;;5.10;;
56999;SDS011;42891;50.006;21.964;2022-12-26T01:55:01;7.72;;;5.38;;
56999;SDS011;42891;50.006;21.964;2022-12-26T01:59:05;10.20;;;5.85;;
56999;SDS011;42891;50.006;21.964;2022-12-26T02:03:08;9.60;;;5.43;;
56999;SDS011;42891;50.006;21.964;2022-12-26T02:07:28;7.88;;;5.60;;
56999;SDS011;42891;50.006;21.964;2022-12-26T02:11:32;8.55;;;5.72;;
56999;SDS011;42891;50.006;21.964;2022-12-26T02:15:37;9.73;;;5.57;;
56999;SDS011;42891;50.006;21.964;2022-12-26T02:24:00;8.40;;;5.47;;
56999;SDS011;42891;50.006;21.964;2022-12-26T02:37:26;9.38;;;6.50;;
56999;SDS011;42891;50.006;21.964;2022-12-26T02:46:11;9.07;;;5.90;;
56999;SDS011;42891;50.006;21.964;2022-12-26T02:50:47;8.43;;;6.20;;
56999;SDS011;42891;50.006;21.964;2022-12-26T02:55:16;12.73;;;6.47;;
56999;SDS011;42891;50.006;21.964;2022-12-26T03:04:36;11.32;;;6.00;;
56999;SDS011;42891;50.006;21.964;2022-12-26T03:09:05;9.30;;;6.75;;
56999;SDS011;42891;50.006;21.964;2022-12-26T03:13:29;8.75;;;6.15;;
56999;SDS011;42891;50.006;21.964;2022-12-26T03:17:43;9.93;;;6.63;;
56999;SDS011;42891;50.006;21.964;2022-12-26T03:21:57;12.68;;;7.32;;
56999;SDS011;42891;50.006;21.964;2022-12-26T03:26:05;15.32;;;7.60;;
56999;SDS011;42891;50.006;21.964;2022-12-26T03:30:29;12.80;;;7.07;;
56999;SDS011;42891;50.006;21.964;2022-12-26T03:34:48;11.75;;;7.10;;
56999;SDS011;42891;50.006;21.964;2022-12-26T03:38:52;10.88;;;7.15;;
56999;SDS011;42891;50.006;21.964;2022-12-26T03:52:44;11.52;;;8.27;;
56999;SDS011;42891;50.006;21.964;2022-12-26T03:57:14;10.48;;;7.43;;
56999;SDS011;42891;50.006;21.964;2022-12-26T04:01:38;10.38;;;7.95;;
56999;SDS011;42891;50.006;21.964;2022-12-26T04:06:00;11.45;;;7.43;;
56999;SDS011;42891;50.006;21.964;2022-12-26T04:10:22;11.82;;;7.18;;
56999;SDS011;42891;50.006;21.964;2022-12-26T04:23:30;12.07;;;8.15;;
56999;SDS011;42891;50.006;21.964;2022-12-26T04:27:52;12.15;;;8.43;;
56999;SDS011;42891;50.006;21.964;2022-12-26T04:32:22;11.93;;;8.50;;
56999;SDS011;42891;50.006;21.964;2022-12-26T04:36:57;11.70;;;7.28;;
56999;SDS011;42891;50.006;21.964;2022-12-26T04:41:21;12.48;;;7.78;;
56999;SDS011;42891;50.006;21.964;2022-12-26T04:45:41;11.68;;;8.77;;
56999;SDS011;42891;50.006;21.964;2022-12-26T04:49:42;11.43;;;8.18;;
56999;SDS011;42891;50.006;21.964;2022-12-26T04:54:06;10.55;;;7.50;;
56999;SDS011;42891;50.006;21.964;2022-12-26T04:58:07;10.75;;;7.65;;
56999;SDS011;42891;50.006;21.964;2022-12-26T05:02:07;10.25;;;7.55;;
56999;SDS011;42891;50.006;21.964;2022-12-26T05:06:26;13.65;;;8.15;;
56999;SDS011;42891;50.006;21.964;2022-12-26T05:10:45;11.25;;;7.78;;
56999;SDS011;42891;50.006;21.964;2022-12-26T05:14:46;9.35;;;6.80;;
56999;SDS011;42891;50.006;21.964;2022-12-26T05:18:47;11.88;;;7.25;;
56999;SDS011;42891;50.006;21.964;2022-12-26T05:23:10;10.07;;;7.22;;
56999;SDS011;42891;50.006;21.964;2022-12-26T05:27:35;9.45;;;7.63;;
56999;SDS011;42891;50.006;21.964;2022-12-26T05:31:56;12.60;;;7.10;;
56999;SDS011;42891;50.006;21.964;2022-12-26T05:35:57;9.73;;;7.07;;
56999;SDS011;42891;50.006;21.964;2022-12-26T05:39:57;9.50;;;6.68;;
56999;SDS011;42891;50.006;21.964;2022-12-26T05:43:58;9.93;;;6.80;;
56999;SDS011;42891;50.006;21.964;2022-12-26T05:47:58;10.15;;;6.72;;
56999;SDS011;42891;50.006;21.964;2022-12-26T05:51:59;10.25;;;6.45;;
56999;SDS011;42891;50.006;21.964;2022-12-26T05:56:03;9.80;;;6.07;;
56999;SDS011;42891;50.006;21.964;2022-12-26T06:00:05;10.43;;;6.43;;
56999;SDS011;42891;50.006;21.964;2022-12-26T06:04:06;10.10;;;7.57;;
56999;SDS011;42891;50.006;21.964;2022-12-26T06:08:06;7.50;;;5.60;;
56999;SDS011;42891;50.006;21.964;2022-12-26T06:12:06;9.87;;;6.10;;
56999;SDS011;42891;50.006;21.964;2022-12-26T06:16:07;6.93;;;5.53;;
56999;SDS011;42891;50.006;21.964;2022-12-26T06:20:09;9.52;;;5.78;;
56999;SDS011;42891;50.006;21.964;2022-12-26T06:24:10;11.55;;;6.13;;
56999;SDS011;42891;50.006;21.964;2022-12-26T06:28:10;9.00;;;5.90;;
56999;SDS011;42891;50.006;21.964;2022-12-26T06:32:10;8.73;;;6.07;;
56999;SDS011;42891;50.006;21.964;2022-12-26T06:36:12;8.50;;;5.43;;
56999;SDS011;42891;50.006;21.964;2022-12-26T06:40:14;7.85;;;5.88;;
56999;SDS011;42891;50.006;21.964;2022-12-26T06:44:14;10.35;;;5.95;;
56999;SDS011;42891;50.006;21.964;2022-12-26T06:48:14;10.35;;;7.07;;
56999;SDS011;42891;50.006;21.964;2022-12-26T06:52:15;10.10;;;5.97;;
56999;SDS011;42891;50.006;21.964;2022-12-26T06:56:16;8.20;;;6.07;;
56999;SDS011;42891;50.006;21.964;2022-12-26T07:00:21;9.10;;;5.97;;
56999;SDS011;42891;50.006;21.964;2022-12-26T07:04:22;15.10;;;7.28;;
56999;SDS011;42891;50.006;21.964;2022-12-26T07:08:22;9.40;;;6.63;;
56999;SDS011;42891;50.006;21.964;2022-12-26T07:12:22;8.93;;;6.33;;
56999;SDS011;42891;50.006;21.964;2022-12-26T07:16:23;8.35;;;5.88;;
56999;SDS011;42891;50.006;21.964;2022-12-26T07:20:23;10.43;;;6.63;;
56999;SDS011;42891;50.006;21.964;2022-12-26T07:24:23;10.00;;;6.93;;
56999;SDS011;42891;50.006;21.964;2022-12-26T07:28:24;13.13;;;7.18;;
56999;SDS011;42891;50.006;21.964;2022-12-26T07:32:25;9.13;;;6.47;;
56999;SDS011;42891;50.006;21.964;2022-12-26T07:36:26;9.65;;;6.10;;
56999;SDS011;42891;50.006;21.964;2022-12-26T07:40:26;17.77;;;11.95;;
56999;SDS011;42891;50.006;21.964;2022-12-26T07:44:28;10.98;;;7.32;;
56999;SDS011;42891;50.006;21.964;2022-12-26T07:48:30;13.40;;;10.25;;
56999;SDS011;42891;50.006;21.964;2022-12-26T07:52:31;16.20;;;12.23;;
56999;SDS011;42891;50.006;21.964;2022-12-26T07:56:31;13.97;;;8.90;;
56999;SDS011;42891;50.006;21.964;2022-12-26T08:00:32;10.63;;;8.07;;
56999;SDS011;42891;50.006;21.964;2022-12-26T08:04:32;13.18;;;9.05;;
56999;SDS011;42891;50.006;21.964;2022-12-26T08:08:32;15.35;;;9.80;;
56999;SDS011;42891;50.006;21.964;2022-12-26T08:12:32;14.90;;;10.10;;
56999;SDS011;42891;50.006;21.964;2022-12-26T08:16:33;14.15;;;9.75;;
56999;SDS011;42891;50.006;21.964;2022-12-26T08:20:33;14.15;;;9.30;;
56999;SDS011;42891;50.006;21.964;2022-12-26T08:24:33;15.25;;;9.63;;
56999;SDS011;42891;50.006;21.964;2022-12-26T08:28:34;16.13;;;9.80;;
56999;SDS011;42891;50.006;21.964;2022-12-26T08:32:34;13.07;;;9.70;;
56999;SDS011;42891;50.006;21.964;2022-12-26T08:36:35;16.88;;;9.60;;
56999;SDS011;42891;50.006;21.964;2022-12-26T08:40:35;14.27;;;9.75;;
56999;SDS011;42891;50.006;21.964;2022-12-26T08:44:36;15.57;;;9.57;;
56999;SDS011;42891;50.006;21.964;2022-12-26T08:48:37;13.23;;;9.83;;
56999;SDS011;42891;50.006;21.964;2022-12-26T08:52:38;12.90;;;9.25;;
56999;SDS011;42891;50.006;21.964;2022-12-26T08:56:38;14.75;;;9.80;;
56999;SDS011;42891;50.006;21.964;2022-12-26T09:00:39;12.25;;;9.65;;
56999;SDS011;42891;50.006;21.964;2022-12-26T09:04:39;13.95;;;9.88;;
56999;SDS011;42891;50.006;21.964;2022-12-26T09:08:39;16.00;;;9.80;;
56999;SDS011;42891;50.006;21.964;2022-12-26T09:12:40;15.25;;;9.95;;
56999;SDS011;42891;50.006;21.964;2022-12-26T09:16:41;17.30;;;11.13;;
56999;SDS011;42891;50.006;21.964;2022-12-26T09:20:45;17.85;;;10.00;;
56999;SDS011;42891;50.006;21.964;2022-12-26T09:24:45;12.97;;;9.37;;
56999;SDS011;42891;50.006;21.964;2022-12-26T09:28:46;12.73;;;9.30;;
56999;SDS011;42891;50.006;21.964;2022-12-26T09:32:50;16.38;;;9.65;;
56999;SDS011;42891;50.006;21.964;2022-12-26T09:36:54;13.93;;;9.00;;
56999;SDS011;42891;50.006;21.964;2022-12-26T09:40:59;13.27;;;8.57;;
56999;SDS011;42891;50.006;21.964;2022-12-26T09:45:16;16.83;;;9.57;;
56999;SDS011;42891;50.006;21.964;2022-12-26T09:49:19;13.90;;;9.75;;
56999;SDS011;42891;50.006;21.964;2022-12-26T09:53:33;15.50;;;10.23;;
56999;SDS011;42891;50.006;21.964;2022-12-26T09:57:39;17.75;;;11.63;;
56999;SDS011;42891;50.006;21.964;2022-12-26T10:01:43;25.77;;;15.55;;
56999;SDS011;42891;50.006;21.964;2022-12-26T10:14:13;12.80;;;10.00;;
56999;SDS011;42891;50.006;21.964;2022-12-26T10:22:44;14.80;;;9.60;;
56999;SDS011;42891;50.006;21.964;2022-12-26T10:26:54;15.23;;;10.68;;
56999;SDS011;42891;50.006;21.964;2022-12-26T10:31:00;14.25;;;10.25;;
56999;SDS011;42891;50.006;21.964;2022-12-26T10:43:47;17.33;;;9.95;;
56999;SDS011;42891;50.006;21.964;2022-12-26T10:47:48;17.20;;;11.60;;
56999;SDS011;42891;50.006;21.964;2022-12-26T10:51:52;19.58;;;11.68;;
56999;SDS011;42891;50.006;21.964;2022-12-26T10:55:55;19.43;;;11.33;;
56999;SDS011;42891;50.006;21.964;2022-12-26T10:59:59;17.63;;;11.32;;
56999;SDS011;42891;50.006;21.964;2022-12-26T11:04:05;16.75;;;10.95;;
56999;SDS011;42891;50.006;21.964;2022-12-26T11:08:34;18.33;;;11.52;;
56999;SDS011;42891;50.006;21.964;2022-12-26T11:12:41;18.07;;;11.60;;
56999;SDS011;42891;50.006;21.964;2022-12-26T11:16:49;16.30;;;11.25;;
56999;SDS011;42891;50.006;21.964;2022-12-26T11:20:49;31.25;;;17.40;;
56999;SDS011;42891;50.006;21.964;2022-12-26T11:29:15;37.63;;;17.20;;
56999;SDS011;42891;50.006;21.964;2022-12-26T11:33:22;25.90;;;15.32;;
56999;SDS011;42891;50.006;21.964;2022-12-26T11:37:30;24.55;;;14.20;;
56999;SDS011;42891;50.006;21.964;2022-12-26T11:41:37;22.42;;;13.52;;
56999;SDS011;42891;50.006;21.964;2022-12-26T11:45:42;20.63;;;13.02;;
56999;SDS011;42891;50.006;21.964;2022-12-26T11:54:11;25.55;;;14.63;;
56999;SDS011;42891;50.006;21.964;2022-12-26T11:58:26;27.35;;;14.88;;
56999;SDS011;42891;50.006;21.964;2022-12-26T12:02:29;26.10;;;15.15;;
56999;SDS011;42891;50.006;21.964;2022-12-26T12:15:12;22.63;;;14.07;;
56999;SDS011;42891;50.006;21.964;2022-12-26T12:19:25;24.53;;;16.00;;
56999;SDS011;42891;50.006;21.964;2022-12-26T12:37:48;21.33;;;13.70;;
56999;SDS011;42891;50.006;21.964;2022-12-26T12:41:43;21.48;;;13.18;;
56999;SDS011;42891;50.006;21.964;2022-12-26T12:50:27;27.25;;;15.50;;
56999;SDS011;42891;50.006;21.964;2022-12-26T13:07:33;20.35;;;12.40;;
56999;SDS011;42891;50.006;21.964;2022-12-26T13:11:39;26.35;;;16.10;;
56999;SDS011;42891;50.006;21.964;2022-12-26T13:15:48;23.85;;;12.73;;
56999;SDS011;42891;50.006;21.964;2022-12-26T13:24:04;20.13;;;12.25;;
56999;SDS011;42891;50.006;21.964;2022-12-26T13:28:26;18.67;;;12.30;;
56999;SDS011;42891;50.006;21.964;2022-12-26T13:32:29;23.40;;;13.95;;
56999;SDS011;42891;50.006;21.964;2022-12-26T13:41:15;39.97;;;22.05;;
56999;SDS011;42891;50.006;21.964;2022-12-26T13:49:37;22.73;;;15.07;;
56999;SDS011;42891;50.006;21.964;2022-12-26T13:53:40;29.30;;;18.02;;
56999;SDS011;42891;50.006;21.964;2022-12-26T13:57:41;22.45;;;14.57;;
56999;SDS011;42891;50.006;21.964;2022-12-26T14:06:42;22.88;;;15.55;;
56999;SDS011;42891;50.006;21.964;2022-12-26T14:15:41;30.63;;;17.70;;
56999;SDS011;42891;50.006;21.964;2022-12-26T14:37:43;27.77;;;16.63;;
56999;SDS011;42891;50.006;21.964;2022-12-26T14:54:34;27.67;;;16.35;;
56999;SDS011;42891;50.006;21.964;2022-12-26T14:58:37;18.02;;;12.93;;
56999;SDS011;42891;50.006;21.964;2022-12-26T15:02:38;21.05;;;13.45;;
56999;SDS011;42891;50.006;21.964;2022-12-26T15:11:24;24.58;;;14.98;;
56999;SDS011;42891;50.006;21.964;2022-12-26T15:50:09;29.77;;;19.60;;
56999;SDS011;42891;50.006;21.964;2022-12-26T16:12:01;49.22;;;30.95;;
56999;SDS011;42891;50.006;21.964;2022-12-26T16:16:28;51.40;;;29.95;;
56999;SDS011;42891;50.006;21.964;2022-12-26T16:20:33;23.33;;;15.90;;
56999;SDS011;42891;50.006;21.964;2022-12-26T16:24:52;34.67;;;21.70;;
56999;SDS011;42891;50.006;21.964;2022-12-26T16:28:58;25.33;;;16.30;;
56999;SDS011;42891;50.006;21.964;2022-12-26T16:32:59;21.75;;;14.65;;
56999;SDS011;42891;50.006;21.964;2022-12-26T16:37:01;21.52;;;14.18;;
56999;SDS011;42891;50.006;21.964;2022-12-26T16:41:05;22.73;;;14.40;;
56999;SDS011;42891;50.006;21.964;2022-12-26T16:45:18;21.90;;;14.65;;
56999;SDS011;42891;50.006;21.964;2022-12-26T16:49:20;27.25;;;16.70;;
56999;SDS011;42891;50.006;21.964;2022-12-26T16:57:34;21.08;;;14.55;;
56999;SDS011;42891;50.006;21.964;2022-12-26T17:01:35;23.98;;;15.15;;
56999;SDS011;42891;50.006;21.964;2022-12-26T17:05:36;22.35;;;15.05;;
56999;SDS011;42891;50.006;21.964;2022-12-26T17:09:38;19.83;;;14.07;;
56999;SDS011;42891;50.006;21.964;2022-12-26T17:13:48;23.65;;;15.20;;
56999;SDS011;42891;50.006;21.964;2022-12-26T17:17:53;21.80;;;14.15;;
56999;SDS011;42891;50.006;21.964;2022-12-26T17:22:17;21.63;;;13.98;;
56999;SDS011;42891;50.006;21.964;2022-12-26T17:26:37;24.88;;;16.33;;
56999;SDS011;42891;50.006;21.964;2022-12-26T17:30:40;26.60;;;17.10;;
56999;SDS011;42891;50.006;21.964;2022-12-26T17:34:43;23.30;;;14.93;;
56999;SDS011;42891;50.006;21.964;2022-12-26T17:38:43;26.50;;;15.50;;
56999;SDS011;42891;50.006;21.964;2022-12-26T17:42:49;25.58;;;16.05;;
56999;SDS011;42891;50.006;21.964;2022-12-26T17:46:55;22.83;;;15.25;;
56999;SDS011;42891;50.006;21.964;2022-12-26T17:50:56;26.70;;;15.95;;
56999;SDS011;42891;50.006;21.964;2022-12-26T17:54:58;28.67;;;16.23;;
56999;SDS011;42891;50.006;21.964;2022-12-26T17:59:00;27.40;;;16.52;;
56999;SDS011;42891;50.006;21.964;2022-12-26T18:03:00;45.47;;;22.13;;
56999;SDS011;42891;50.006;21.964;2022-12-26T18:07:02;31.02;;;17.73;;
56999;SDS011;42891;50.006;21.964;2022-12-26T18:11:04;24.35;;;16.48;;
56999;SDS011;42891;50.006;21.964;2022-12-26T18:15:10;29.10;;;16.83;;
56999;SDS011;42891;50.006;21.964;2022-12-26T18:19:11;29.92;;;18.20;;
56999;SDS011;42891;50.006;21.964;2022-12-26T18:23:13;28.05;;;17.52;;
56999;SDS011;42891;50.006;21.964;2022-12-26T18:27:17;26.73;;;17.13;;
56999;SDS011;42891;50.006;21.964;2022-12-26T18:31:23;26.02;;;16.67;;
56999;SDS011;42891;50.006;21.964;2022-12-26T18:35:25;25.67;;;16.55;;
56999;SDS011;42891;50.006;21.964;2022-12-26T18:39:25;27.90;;;16.40;;
56999;SDS011;42891;50.006;21.964;2022-12-26T18:43:26;24.92;;;16.00;;
56999;SDS011;42891;50.006;21.964;2022-12-26T18:47:26;25.67;;;17.02;;
56999;SDS011;42891;50.006;21.964;2022-12-26T18:51:26;29.57;;;17.60;;
56999;SDS011;42891;50.006;21.964;2022-12-26T18:55:26;25.37;;;16.70;;
56999;SDS011;42891;50.006;21.964;2022-12-26T18:59:27;28.60;;;16.17;;
56999;SDS011;42891;50.006;21.964;2022-12-26T19:03:28;26.08;;;17.30;;
56999;SDS011;42891;50.006;21.964;2022-12-26T19:07:28;23.90;;;15.43;;
56999;SDS011;42891;50.006;21.964;2022-12-26T19:11:28;21.67;;;15.00;;
56999;SDS011;42891;50.006;21.964;2022-12-26T19:15:32;21.67;;;14.13;;
56999;SDS011;42891;50.006;21.964;2022-12-26T19:19:34;24.77;;;15.43;;
56999;SDS011;42891;50.006;21.964;2022-12-26T19:23:34;21.27;;;13.95;;
56999;SDS011;42891;50.006;21.964;2022-12-26T19:27:34;21.93;;;15.27;;
56999;SDS011;42891;50.006;21.964;2022-12-26T19:31:34;19.10;;;14.10;;
56999;SDS011;42891;50.006;21.964;2022-12-26T19:35:35;26.37;;;17.40;;
56999;SDS011;42891;50.006;21.964;2022-12-26T19:39:35;22.52;;;13.73;;
56999;SDS011;42891;50.006;21.964;2022-12-26T19:43:35;18.43;;;13.20;;
56999;SDS011;42891;50.006;21.964;2022-12-26T19:47:36;18.40;;;12.65;;
56999;SDS011;42891;50.006;21.964;2022-12-26T19:51:36;20.00;;;12.77;;
56999;SDS011;42891;50.006;21.964;2022-12-26T19:55:36;22.20;;;14.35;;
56999;SDS011;42891;50.006;21.964;2022-12-26T19:59:37;23.13;;;14.33;;
56999;SDS011;42891;50.006;21.964;2022-12-26T20:03:37;22.92;;;14.50;;
56999;SDS011;42891;50.006;21.964;2022-12-26T20:07:38;23.05;;;13.82;;
56999;SDS011;42891;50.006;21.964;2022-12-26T20:11:40;29.95;;;16.42;;
56999;SDS011;42891;50.006;21.964;2022-12-26T20:15:46;17.85;;;12.45;;
56999;SDS011;42891;50.006;21.964;2022-12-26T20:19:46;20.45;;;13.95;;
56999;SDS011;42891;50.006;21.964;2022-12-26T20:23:46;24.00;;;15.38;;
56999;SDS011;42891;50.006;21.964;2022-12-26T20:27:47;34.57;;;17.50;;
56999;SDS011;42891;50.006;21.964;2022-12-26T20:31:47;31.17;;;15.57;;
56999;SDS011;42891;50.006;21.964;2022-12-26T20:35:48;28.85;;;15.52;;
56999;SDS011;42891;50.006;21.964;2022-12-26T20:39:48;20.73;;;13.13;;
56999;SDS011;42891;50.006;21.964;2022-12-26T20:43:49;22.23;;;14.45;;
56999;SDS011;42891;50.006;21.964;2022-12-26T20:47:50;20.48;;;13.52;;
56999;SDS011;42891;50.006;21.964;2022-12-26T20:51:50;32.70;;;17.17;;
56999;SDS011;42891;50.006;21.964;2022-12-26T20:55:51;27.27;;;15.83;;
56999;SDS011;42891;50.006;21.964;2022-12-26T20:59:52;29.77;;;16.40;;
56999;SDS011;42891;50.006;21.964;2022-12-26T21:03:53;20.40;;;13.90;;
56999;SDS011;42891;50.006;21.964;2022-12-26T21:07:54;32.28;;;23.42;;
56999;SDS011;42891;50.006;21.964;2022-12-26T21:11:54;23.67;;;15.87;;
56999;SDS011;42891;50.006;21.964;2022-12-26T21:15:55;22.67;;;14.85;;
56999;SDS011;42891;50.006;21.964;2022-12-26T21:19:55;22.35;;;13.95;;
56999;SDS011;42891;50.006;21.964;2022-12-26T21:23:56;19.33;;;13.30;;
56999;SDS011;42891;50.006;21.964;2022-12-26T21:27:58;18.98;;;12.57;;
56999;SDS011;42891;50.006;21.964;2022-12-26T21:31:59;19.77;;;13.10;;
56999;SDS011;42891;50.006;21.964;2022-12-26T21:36:00;20.52;;;13.13;;
56999;SDS011;42891;50.006;21.964;2022-12-26T21:40:06;20.55;;;13.73;;
56999;SDS011;42891;50.006;21.964;2022-12-26T21:44:07;29.65;;;14.80;;
56999;SDS011;42891;50.006;21.964;2022-12-26T21:48:07;20.37;;;14.13;;
56999;SDS011;42891;50.006;21.964;2022-12-26T21:52:08;37.28;;;18.50;;
56999;SDS011;42891;50.006;21.964;2022-12-26T21:56:09;18.77;;;12.27;;
56999;SDS011;42891;50.006;21.964;2022-12-26T22:00:11;24.08;;;14.45;;
56999;SDS011;42891;50.006;21.964;2022-12-26T22:04:11;19.17;;;12.07;;
56999;SDS011;42891;50.006;21.964;2022-12-26T22:08:18;29.58;;;17.15;;
56999;SDS011;42891;50.006;21.964;2022-12-26T22:12:18;19.27;;;13.30;;
56999;SDS011;42891;50.006;21.964;2022-12-26T22:16:37;26.35;;;15.60;;
56999;SDS011;42891;50.006;21.964;2022-12-26T22:20:38;19.55;;;13.13;;
56999;SDS011;42891;50.006;21.964;2022-12-26T22:24:40;24.63;;;14.40;;
56999;SDS011;42891;50.006;21.964;2022-12-26T22:28:41;18.10;;;12.50;;
56999;SDS011;42891;50.006;21.964;2022-12-26T22:32:42;22.20;;;13.73;;
56999;SDS011;42891;50.006;21.964;2022-12-26T22:36:42;23.13;;;14.80;;
56999;SDS011;42891;50.006;21.964;2022-12-26T22:40:53;22.88;;;15.50;;
56999;SDS011;42891;50.006;21.964;2022-12-26T22:44:54;22.83;;;14.20;;
56999;SDS011;42891;50.006;21.964;2022-12-26T22:48:56;23.33;;;14.48;;
56999;SDS011;42891;50.006;21.964;2022-12-26T22:52:56;35.85;;;21.05;;
56999;SDS011;42891;50.006;21.964;2022-12-26T22:56:56;24.40;;;15.43;;
56999;SDS011;42891;50.006;21.964;2022-12-26T23:00:57;26.40;;;16.92;;
56999;SDS011;42891;50.006;21.964;2022-12-26T23:04:57;21.00;;;14.43;;
56999;SDS011;42891;50.006;21.964;2022-12-26T23:08:58;19.55;;;13.38;;
56999;SDS011;42891;50.006;21.964;2022-12-26T23:13:00;20.20;;;13.02;;
56999;SDS011;42891;50.006;21.964;2022-12-26T23:17:02;23.65;;;14.30;;
56999;SDS011;42891;50.006;21.964;2022-12-26T23:21:07;22.98;;;15.40;;
56999;SDS011;42891;50.006;21.964;2022-12-26T23:25:30;22.85;;;16.23;;
56999;SDS011;42891;50.006;21.964;2022-12-26T23:29:31;19.40;;;13.25;;
56999;SDS011;42891;50.006;21.964;2022-12-26T23:33:49;18.88;;;12.52;;
56999;SDS011;42891;50.006;21.964;2022-12-26T23:37:50;18.60;;;12.30;;
56999;SDS011;42891;50.006;21.964;2022-12-26T23:41:50;15.40;;;10.95;;
56999;SDS011;42891;50.006;21.964;2022-12-26T23:45:50;17.77;;;11.93;;
56999;SDS011;42891;50.006;21.964;2022-12-26T23:49:51;19.57;;;12.97;;
56999;SDS011;42891;50.006;21.964;2022-12-26T23:53:51;17.42;;;12.48;;
56999;SDS011;42891;50.006;21.964;2022-12-26T23:57:53;17.27;;;12.02;;
